sensor_id;sensor_type;location;lat;lon;timestamp;P1;durP1;ratioP1;P2;durP2;ratioP2
65189;SDS011;51777;53.570;9.984;2023-07-24T00:02:13;3.40;;;2.47;;
65189;SDS011;51777;53.570;9.984;2023-07-24T00:04:39;3.63;;;2.80;;
65189;SDS011;51777;53.570;9.984;2023-07-24T00:07:05;3.65;;;2.78;;
65189;SDS011;51777;53.570;9.984;2023-07-24T00:09:31;6.88;;;2.80;;
65189;SDS011;51777;53.570;9.984;2023-07-24T00:11:57;4.60;;;3.50;;
65189;SDS011;51777;53.570;9.984;2023-07-24T00:14:22;2.90;;;2.70;;
65189;SDS011;51777;53.570;9.984;2023-07-24T00:16:47;3.88;;;2.90;;
65189;SDS011;51777;53.570;9.984;2023-07-24T00:19:13;7.43;;;2.65;;
65189;SDS011;51777;53.570;9.984;2023-07-24T00:21:38;5.65;;;2.60;;
65189;SDS011;51777;53.570;9.984;2023-07-24T00:24:04;3.20;;;2.78;;
65189;SDS011;51777;53.570;9.984;2023-07-24T00:26:29;2.72;;;2.53;;
65189;SDS011;51777;53.570;9.984;2023-07-24T00:28:55;4.45;;;2.63;;
65189;SDS011;51777;53.570;9.984;2023-07-24T00:31:20;4.65;;;3.05;;
65189;SDS011;51777;53.570;9.984;2023-07-24T00:33:45;3.72;;;2.83;;
65189;SDS011;51777;53.570;9.984;2023-07-24T00:36:11;3.03;;;2.75;;
65189;SDS011;51777;53.570;9.984;2023-07-24T00:38:36;3.22;;;2.70;;
65189;SDS011;51777;53.570;9.984;2023-07-24T00:41:02;4.47;;;2.63;;
65189;SDS011;51777;53.570;9.984;2023-07-24T00:43:27;5.35;;;2.90;;
65189;SDS011;51777;53.570;9.984;2023-07-24T00:45:52;3.13;;;2.83;;
65189;SDS011;51777;53.570;9.984;2023-07-24T00:48:20;3.13;;;2.90;;
65189;SDS011;51777;53.570;9.984;2023-07-24T00:50:46;3.50;;;2.90;;
65189;SDS011;51777;53.570;9.984;2023-07-24T00:53:12;4.72;;;3.10;;
65189;SDS011;51777;53.570;9.984;2023-07-24T00:55:39;4.60;;;2.85;;
65189;SDS011;51777;53.570;9.984;2023-07-24T00:58:05;3.78;;;2.90;;
65189;SDS011;51777;53.570;9.984;2023-07-24T01:00:31;4.18;;;3.35;;
65189;SDS011;51777;53.570;9.984;2023-07-24T01:02:57;3.17;;;2.67;;
65189;SDS011;51777;53.570;9.984;2023-07-24T01:05:25;3.30;;;3.00;;
65189;SDS011;51777;53.570;9.984;2023-07-24T01:07:51;6.80;;;3.15;;
65189;SDS011;51777;53.570;9.984;2023-07-24T01:10:17;6.95;;;3.50;;
65189;SDS011;51777;53.570;9.984;2023-07-24T01:12:59;4.13;;;3.35;;
65189;SDS011;51777;53.570;9.984;2023-07-24T01:18:00;8.48;;;3.33;;
65189;SDS011;51777;53.570;9.984;2023-07-24T01:20:29;6.03;;;3.05;;
65189;SDS011;51777;53.570;9.984;2023-07-24T01:25:56;4.57;;;3.05;;
65189;SDS011;51777;53.570;9.984;2023-07-24T01:28:25;5.80;;;3.08;;
65189;SDS011;51777;53.570;9.984;2023-07-24T01:30:51;7.60;;;3.10;;
65189;SDS011;51777;53.570;9.984;2023-07-24T01:33:17;3.97;;;3.20;;
65189;SDS011;51777;53.570;9.984;2023-07-24T01:35:44;8.02;;;3.13;;
65189;SDS011;51777;53.570;9.984;2023-07-24T01:38:13;4.90;;;3.20;;
65189;SDS011;51777;53.570;9.984;2023-07-24T01:40:42;3.85;;;3.03;;
65189;SDS011;51777;53.570;9.984;2023-07-24T01:43:08;6.18;;;3.10;;
65189;SDS011;51777;53.570;9.984;2023-07-24T01:45:34;3.40;;;3.10;;
65189;SDS011;51777;53.570;9.984;2023-07-24T01:48:01;4.22;;;3.13;;
65189;SDS011;51777;53.570;9.984;2023-07-24T01:50:30;6.93;;;2.90;;
65189;SDS011;51777;53.570;9.984;2023-07-24T01:52:56;5.38;;;3.30;;
65189;SDS011;51777;53.570;9.984;2023-07-24T01:55:21;3.90;;;2.97;;
65189;SDS011;51777;53.570;9.984;2023-07-24T01:57:46;3.35;;;3.05;;
65189;SDS011;51777;53.570;9.984;2023-07-24T02:00:12;6.47;;;3.20;;
65189;SDS011;51777;53.570;9.984;2023-07-24T02:02:37;4.57;;;3.40;;
65189;SDS011;51777;53.570;9.984;2023-07-24T02:05:03;3.85;;;3.45;;
65189;SDS011;51777;53.570;9.984;2023-07-24T02:07:28;4.88;;;3.30;;
65189;SDS011;51777;53.570;9.984;2023-07-24T02:09:54;3.60;;;3.30;;
65189;SDS011;51777;53.570;9.984;2023-07-24T02:12:19;5.13;;;3.50;;
65189;SDS011;51777;53.570;9.984;2023-07-24T02:14:45;4.18;;;3.40;;
65189;SDS011;51777;53.570;9.984;2023-07-24T02:17:14;4.00;;;3.40;;
65189;SDS011;51777;53.570;9.984;2023-07-24T02:19:40;3.90;;;3.30;;
65189;SDS011;51777;53.570;9.984;2023-07-24T02:22:06;4.85;;;3.40;;
65189;SDS011;51777;53.570;9.984;2023-07-24T02:24:31;5.95;;;3.70;;
65189;SDS011;51777;53.570;9.984;2023-07-24T02:26:56;6.90;;;3.80;;
65189;SDS011;51777;53.570;9.984;2023-07-24T02:29:22;5.35;;;3.65;;
65189;SDS011;51777;53.570;9.984;2023-07-24T02:31:47;7.00;;;3.97;;
65189;SDS011;51777;53.570;9.984;2023-07-24T02:34:13;4.90;;;3.63;;
65189;SDS011;51777;53.570;9.984;2023-07-24T02:36:39;3.53;;;3.08;;
65189;SDS011;51777;53.570;9.984;2023-07-24T02:39:06;4.10;;;3.50;;
65189;SDS011;51777;53.570;9.984;2023-07-24T02:41:31;4.55;;;3.78;;
65189;SDS011;51777;53.570;9.984;2023-07-24T02:43:57;6.43;;;3.83;;
65189;SDS011;51777;53.570;9.984;2023-07-24T02:46:23;6.10;;;3.58;;
65189;SDS011;51777;53.570;9.984;2023-07-24T02:48:49;4.40;;;3.97;;
65189;SDS011;51777;53.570;9.984;2023-07-24T02:51:15;4.85;;;3.78;;
65189;SDS011;51777;53.570;9.984;2023-07-24T02:53:41;5.10;;;3.70;;
65189;SDS011;51777;53.570;9.984;2023-07-24T02:56:06;6.22;;;3.70;;
65189;SDS011;51777;53.570;9.984;2023-07-24T02:58:31;5.32;;;3.70;;
65189;SDS011;51777;53.570;9.984;2023-07-24T03:01:04;4.95;;;3.50;;
65189;SDS011;51777;53.570;9.984;2023-07-24T03:05:56;4.70;;;3.60;;
65189;SDS011;51777;53.570;9.984;2023-07-24T03:08:22;4.18;;;2.83;;
65189;SDS011;51777;53.570;9.984;2023-07-24T03:10:47;3.38;;;2.95;;
65189;SDS011;51777;53.570;9.984;2023-07-24T03:13:13;4.30;;;3.63;;
65189;SDS011;51777;53.570;9.984;2023-07-24T03:15:38;5.18;;;2.67;;
65189;SDS011;51777;53.570;9.984;2023-07-24T03:18:03;4.40;;;3.65;;
65189;SDS011;51777;53.570;9.984;2023-07-24T03:20:29;5.25;;;3.53;;
65189;SDS011;51777;53.570;9.984;2023-07-24T03:22:54;5.20;;;3.70;;
65189;SDS011;51777;53.570;9.984;2023-07-24T03:25:20;5.60;;;3.88;;
65189;SDS011;51777;53.570;9.984;2023-07-24T03:27:45;6.85;;;3.92;;
65189;SDS011;51777;53.570;9.984;2023-07-24T03:30:11;11.18;;;4.78;;
65189;SDS011;51777;53.570;9.984;2023-07-24T03:32:36;3.67;;;2.90;;
65189;SDS011;51777;53.570;9.984;2023-07-24T03:35:03;8.32;;;3.83;;
65189;SDS011;51777;53.570;9.984;2023-07-24T03:37:30;5.18;;;3.80;;
65189;SDS011;51777;53.570;9.984;2023-07-24T03:39:55;8.93;;;4.15;;
65189;SDS011;51777;53.570;9.984;2023-07-24T03:42:25;4.78;;;3.80;;
65189;SDS011;51777;53.570;9.984;2023-07-24T03:44:52;5.13;;;3.90;;
65189;SDS011;51777;53.570;9.984;2023-07-24T03:47:18;6.65;;;3.88;;
65189;SDS011;51777;53.570;9.984;2023-07-24T03:49:43;5.70;;;4.20;;
65189;SDS011;51777;53.570;9.984;2023-07-24T03:52:08;4.30;;;3.78;;
65189;SDS011;51777;53.570;9.984;2023-07-24T03:54:34;7.75;;;4.15;;
65189;SDS011;51777;53.570;9.984;2023-07-24T03:56:59;6.20;;;3.50;;
65189;SDS011;51777;53.570;9.984;2023-07-24T03:59:24;5.95;;;3.78;;
65189;SDS011;51777;53.570;9.984;2023-07-24T04:01:50;5.40;;;3.67;;
65189;SDS011;51777;53.570;9.984;2023-07-24T04:04:15;5.03;;;3.58;;
65189;SDS011;51777;53.570;9.984;2023-07-24T04:06:41;5.13;;;4.10;;
65189;SDS011;51777;53.570;9.984;2023-07-24T04:09:06;6.00;;;4.10;;
65189;SDS011;51777;53.570;9.984;2023-07-24T04:11:31;7.47;;;3.75;;
65189;SDS011;51777;53.570;9.984;2023-07-24T04:13:57;6.00;;;3.88;;
65189;SDS011;51777;53.570;9.984;2023-07-24T04:16:22;8.88;;;4.30;;
65189;SDS011;51777;53.570;9.984;2023-07-24T04:18:47;9.98;;;4.25;;
65189;SDS011;51777;53.570;9.984;2023-07-24T04:21:13;6.13;;;4.18;;
65189;SDS011;51777;53.570;9.984;2023-07-24T04:23:38;5.07;;;4.22;;
65189;SDS011;51777;53.570;9.984;2023-07-24T04:26:03;8.15;;;4.50;;
65189;SDS011;51777;53.570;9.984;2023-07-24T04:28:29;7.40;;;4.63;;
65189;SDS011;51777;53.570;9.984;2023-07-24T04:30:54;7.07;;;4.63;;
65189;SDS011;51777;53.570;9.984;2023-07-24T04:33:20;4.55;;;3.67;;
65189;SDS011;51777;53.570;9.984;2023-07-24T04:35:47;5.72;;;4.47;;
65189;SDS011;51777;53.570;9.984;2023-07-24T04:38:14;5.30;;;4.07;;
65189;SDS011;51777;53.570;9.984;2023-07-24T04:40:39;8.45;;;4.55;;
65189;SDS011;51777;53.570;9.984;2023-07-24T04:43:04;8.40;;;4.35;;
65189;SDS011;51777;53.570;9.984;2023-07-24T04:45:30;8.23;;;4.18;;
65189;SDS011;51777;53.570;9.984;2023-07-24T04:47:55;8.50;;;4.70;;
65189;SDS011;51777;53.570;9.984;2023-07-24T04:50:21;5.43;;;4.18;;
65189;SDS011;51777;53.570;9.984;2023-07-24T04:52:46;7.68;;;4.40;;
65189;SDS011;51777;53.570;9.984;2023-07-24T04:55:12;7.00;;;4.40;;
65189;SDS011;51777;53.570;9.984;2023-07-24T04:57:37;5.32;;;3.75;;
65189;SDS011;51777;53.570;9.984;2023-07-24T05:00:03;4.85;;;4.00;;
65189;SDS011;51777;53.570;9.984;2023-07-24T05:02:29;7.32;;;4.53;;
65189;SDS011;51777;53.570;9.984;2023-07-24T05:04:54;6.03;;;4.05;;
65189;SDS011;51777;53.570;9.984;2023-07-24T05:07:20;7.43;;;4.20;;
65189;SDS011;51777;53.570;9.984;2023-07-24T05:09:45;4.45;;;3.22;;
65189;SDS011;51777;53.570;9.984;2023-07-24T05:12:11;4.40;;;3.47;;
65189;SDS011;51777;53.570;9.984;2023-07-24T05:14:37;5.95;;;4.03;;
65189;SDS011;51777;53.570;9.984;2023-07-24T05:17:03;6.68;;;4.35;;
65189;SDS011;51777;53.570;9.984;2023-07-24T05:19:28;6.05;;;4.03;;
65189;SDS011;51777;53.570;9.984;2023-07-24T05:21:54;7.55;;;3.15;;
65189;SDS011;51777;53.570;9.984;2023-07-24T05:24:19;5.03;;;4.20;;
65189;SDS011;51777;53.570;9.984;2023-07-24T05:26:45;5.97;;;4.03;;
65189;SDS011;51777;53.570;9.984;2023-07-24T05:29:10;5.82;;;3.70;;
65189;SDS011;51777;53.570;9.984;2023-07-24T05:31:35;5.05;;;3.75;;
65189;SDS011;51777;53.570;9.984;2023-07-24T05:34:01;4.43;;;3.70;;
65189;SDS011;51777;53.570;9.984;2023-07-24T05:36:27;5.05;;;3.60;;
65189;SDS011;51777;53.570;9.984;2023-07-24T05:38:52;5.65;;;3.95;;
65189;SDS011;51777;53.570;9.984;2023-07-24T05:41:18;4.40;;;3.53;;
65189;SDS011;51777;53.570;9.984;2023-07-24T05:43:43;4.90;;;3.65;;
65189;SDS011;51777;53.570;9.984;2023-07-24T05:46:09;6.20;;;3.47;;
65189;SDS011;51777;53.570;9.984;2023-07-24T05:48:34;8.25;;;3.70;;
65189;SDS011;51777;53.570;9.984;2023-07-24T05:50:59;11.63;;;4.10;;
65189;SDS011;51777;53.570;9.984;2023-07-24T05:53:25;7.45;;;4.00;;
65189;SDS011;51777;53.570;9.984;2023-07-24T05:56:00;6.15;;;3.70;;
65189;SDS011;51777;53.570;9.984;2023-07-24T05:58:26;4.60;;;3.70;;
65189;SDS011;51777;53.570;9.984;2023-07-24T06:00:52;4.97;;;3.47;;
65189;SDS011;51777;53.570;9.984;2023-07-24T06:03:18;5.20;;;3.10;;
65189;SDS011;51777;53.570;9.984;2023-07-24T06:05:43;6.15;;;3.80;;
65189;SDS011;51777;53.570;9.984;2023-07-24T06:08:08;4.55;;;3.78;;
65189;SDS011;51777;53.570;9.984;2023-07-24T06:10:36;4.32;;;3.22;;
65189;SDS011;51777;53.570;9.984;2023-07-24T06:13:01;4.63;;;3.85;;
65189;SDS011;51777;53.570;9.984;2023-07-24T06:15:27;6.80;;;3.88;;
65189;SDS011;51777;53.570;9.984;2023-07-24T06:17:52;4.93;;;3.63;;
65189;SDS011;51777;53.570;9.984;2023-07-24T06:20:18;8.40;;;4.13;;
65189;SDS011;51777;53.570;9.984;2023-07-24T06:22:43;5.03;;;3.65;;
65189;SDS011;51777;53.570;9.984;2023-07-24T06:25:08;5.32;;;3.80;;
65189;SDS011;51777;53.570;9.984;2023-07-24T06:27:34;4.63;;;3.85;;
65189;SDS011;51777;53.570;9.984;2023-07-24T06:29:59;4.30;;;3.67;;
65189;SDS011;51777;53.570;9.984;2023-07-24T06:32:25;5.18;;;3.38;;
65189;SDS011;51777;53.570;9.984;2023-07-24T06:34:50;6.07;;;3.50;;
65189;SDS011;51777;53.570;9.984;2023-07-24T06:37:15;5.80;;;3.53;;
65189;SDS011;51777;53.570;9.984;2023-07-24T06:39:41;4.93;;;3.45;;
65189;SDS011;51777;53.570;9.984;2023-07-24T06:42:07;2.70;;;2.28;;
65189;SDS011;51777;53.570;9.984;2023-07-24T06:44:32;3.42;;;2.85;;
65189;SDS011;51777;53.570;9.984;2023-07-24T06:46:58;3.20;;;2.90;;
65189;SDS011;51777;53.570;9.984;2023-07-24T06:49:23;3.92;;;3.50;;
65189;SDS011;51777;53.570;9.984;2023-07-24T06:51:49;3.92;;;3.53;;
65189;SDS011;51777;53.570;9.984;2023-07-24T06:54:14;7.15;;;3.92;;
65189;SDS011;51777;53.570;9.984;2023-07-24T06:56:39;7.95;;;3.78;;
65189;SDS011;51777;53.570;9.984;2023-07-24T06:59:05;4.10;;;3.60;;
65189;SDS011;51777;53.570;9.984;2023-07-24T07:01:30;5.53;;;3.90;;
65189;SDS011;51777;53.570;9.984;2023-07-24T07:03:56;5.93;;;4.07;;
65189;SDS011;51777;53.570;9.984;2023-07-24T07:06:21;6.60;;;3.90;;
65189;SDS011;51777;53.570;9.984;2023-07-24T07:08:46;4.40;;;3.72;;
65189;SDS011;51777;53.570;9.984;2023-07-24T07:11:12;3.80;;;3.40;;
65189;SDS011;51777;53.570;9.984;2023-07-24T07:13:37;4.53;;;4.10;;
65189;SDS011;51777;53.570;9.984;2023-07-24T07:16:03;4.20;;;3.78;;
65189;SDS011;51777;53.570;9.984;2023-07-24T07:18:28;4.45;;;3.90;;
65189;SDS011;51777;53.570;9.984;2023-07-24T07:20:54;4.85;;;3.60;;
65189;SDS011;51777;53.570;9.984;2023-07-24T07:23:19;4.30;;;3.90;;
65189;SDS011;51777;53.570;9.984;2023-07-24T07:25:45;4.43;;;3.90;;
65189;SDS011;51777;53.570;9.984;2023-07-24T07:28:14;5.03;;;4.10;;
65189;SDS011;51777;53.570;9.984;2023-07-24T07:30:44;3.90;;;3.50;;
65189;SDS011;51777;53.570;9.984;2023-07-24T07:33:09;4.13;;;3.50;;
65189;SDS011;51777;53.570;9.984;2023-07-24T07:35:35;5.68;;;3.90;;
65189;SDS011;51777;53.570;9.984;2023-07-24T07:38:01;4.82;;;3.70;;
65189;SDS011;51777;53.570;9.984;2023-07-24T07:40:27;4.10;;;3.70;;
65189;SDS011;51777;53.570;9.984;2023-07-24T07:42:53;3.28;;;3.00;;
65189;SDS011;51777;53.570;9.984;2023-07-24T07:45:18;3.45;;;3.15;;
65189;SDS011;51777;53.570;9.984;2023-07-24T07:47:44;4.60;;;3.35;;
65189;SDS011;51777;53.570;9.984;2023-07-24T07:50:10;4.35;;;3.80;;
65189;SDS011;51777;53.570;9.984;2023-07-24T07:52:35;4.68;;;3.65;;
65189;SDS011;51777;53.570;9.984;2023-07-24T07:55:01;9.80;;;4.00;;
65189;SDS011;51777;53.570;9.984;2023-07-24T07:57:26;3.55;;;2.80;;
65189;SDS011;51777;53.570;9.984;2023-07-24T07:59:52;3.85;;;3.40;;
65189;SDS011;51777;53.570;9.984;2023-07-24T08:02:17;5.38;;;4.00;;
65189;SDS011;51777;53.570;9.984;2023-07-24T08:04:43;6.88;;;3.92;;
65189;SDS011;51777;53.570;9.984;2023-07-24T08:07:08;4.40;;;4.00;;
65189;SDS011;51777;53.570;9.984;2023-07-24T08:09:33;5.18;;;4.07;;
65189;SDS011;51777;53.570;9.984;2023-07-24T08:12:00;5.60;;;3.35;;
65189;SDS011;51777;53.570;9.984;2023-07-24T08:14:26;4.30;;;3.88;;
65189;SDS011;51777;53.570;9.984;2023-07-24T08:16:51;4.82;;;3.95;;
65189;SDS011;51777;53.570;9.984;2023-07-24T08:19:18;4.13;;;3.72;;
65189;SDS011;51777;53.570;9.984;2023-07-24T08:21:43;4.90;;;4.10;;
65189;SDS011;51777;53.570;9.984;2023-07-24T08:24:08;4.70;;;4.18;;
65189;SDS011;51777;53.570;9.984;2023-07-24T08:26:34;4.65;;;3.90;;
65189;SDS011;51777;53.570;9.984;2023-07-24T08:28:59;4.53;;;4.13;;
65189;SDS011;51777;53.570;9.984;2023-07-24T08:31:25;7.78;;;4.40;;
65189;SDS011;51777;53.570;9.984;2023-07-24T08:33:50;6.55;;;4.00;;
65189;SDS011;51777;53.570;9.984;2023-07-24T08:36:16;4.55;;;4.15;;
65189;SDS011;51777;53.570;9.984;2023-07-24T08:38:41;5.13;;;4.55;;
65189;SDS011;51777;53.570;9.984;2023-07-24T08:41:11;5.50;;;3.45;;
65189;SDS011;51777;53.570;9.984;2023-07-24T08:43:38;4.63;;;4.13;;
65189;SDS011;51777;53.570;9.984;2023-07-24T08:46:05;5.63;;;4.43;;
65189;SDS011;51777;53.570;9.984;2023-07-24T08:48:32;4.85;;;4.30;;
65189;SDS011;51777;53.570;9.984;2023-07-24T08:51:01;8.95;;;4.20;;
65189;SDS011;51777;53.570;9.984;2023-07-24T08:53:32;5.60;;;4.97;;
65189;SDS011;51777;53.570;9.984;2023-07-24T08:56:02;4.78;;;4.30;;
65189;SDS011;51777;53.570;9.984;2023-07-24T08:58:32;4.65;;;4.25;;
65189;SDS011;51777;53.570;9.984;2023-07-24T09:00:58;6.40;;;4.68;;
65189;SDS011;51777;53.570;9.984;2023-07-24T09:03:25;3.90;;;3.60;;
65189;SDS011;51777;53.570;9.984;2023-07-24T09:05:51;4.35;;;3.95;;
65189;SDS011;51777;53.570;9.984;2023-07-24T09:08:17;6.15;;;4.30;;
65189;SDS011;51777;53.570;9.984;2023-07-24T09:10:53;4.95;;;4.03;;
65189;SDS011;51777;53.570;9.984;2023-07-24T09:13:18;4.38;;;3.97;;
65189;SDS011;51777;53.570;9.984;2023-07-24T09:15:44;4.97;;;4.15;;
65189;SDS011;51777;53.570;9.984;2023-07-24T09:18:10;4.53;;;3.75;;
65189;SDS011;51777;53.570;9.984;2023-07-24T09:20:40;6.72;;;4.00;;
65189;SDS011;51777;53.570;9.984;2023-07-24T09:23:07;7.05;;;4.85;;
65189;SDS011;51777;53.570;9.984;2023-07-24T09:25:37;9.35;;;4.53;;
65189;SDS011;51777;53.570;9.984;2023-07-24T09:30:41;5.43;;;4.70;;
65189;SDS011;51777;53.570;9.984;2023-07-24T09:33:09;5.00;;;3.72;;
65189;SDS011;51777;53.570;9.984;2023-07-24T09:35:34;5.43;;;4.75;;
65189;SDS011;51777;53.570;9.984;2023-07-24T09:38:06;7.55;;;4.78;;
65189;SDS011;51777;53.570;9.984;2023-07-24T09:43:25;6.88;;;3.92;;
65189;SDS011;51777;53.570;9.984;2023-07-24T09:45:53;5.32;;;3.90;;
65189;SDS011;51777;53.570;9.984;2023-07-24T09:48:20;6.30;;;4.57;;
65189;SDS011;51777;53.570;9.984;2023-07-24T09:50:48;8.52;;;4.35;;
65189;SDS011;51777;53.570;9.984;2023-07-24T09:53:20;5.50;;;4.38;;
65189;SDS011;51777;53.570;9.984;2023-07-24T09:55:51;6.22;;;4.40;;
65189;SDS011;51777;53.570;9.984;2023-07-24T09:58:20;5.35;;;4.32;;
65189;SDS011;51777;53.570;9.984;2023-07-24T10:00:47;4.80;;;3.92;;
65189;SDS011;51777;53.570;9.984;2023-07-24T10:03:14;7.30;;;4.47;;
65189;SDS011;51777;53.570;9.984;2023-07-24T10:05:40;5.75;;;4.03;;
65189;SDS011;51777;53.570;9.984;2023-07-24T10:08:08;4.82;;;3.92;;
65189;SDS011;51777;53.570;9.984;2023-07-24T10:10:34;4.63;;;3.72;;
65189;SDS011;51777;53.570;9.984;2023-07-24T10:13:00;4.35;;;3.83;;
65189;SDS011;51777;53.570;9.984;2023-07-24T10:15:26;4.38;;;3.70;;
65189;SDS011;51777;53.570;9.984;2023-07-24T10:18:00;4.75;;;4.10;;
65189;SDS011;51777;53.570;9.984;2023-07-24T10:20:32;6.72;;;4.30;;
65189;SDS011;51777;53.570;9.984;2023-07-24T10:25:31;4.78;;;4.05;;
65189;SDS011;51777;53.570;9.984;2023-07-24T10:28:01;4.55;;;3.83;;
65189;SDS011;51777;53.570;9.984;2023-07-24T10:30:41;4.65;;;3.55;;
65189;SDS011;51777;53.570;9.984;2023-07-24T10:38:10;4.63;;;3.85;;
65189;SDS011;51777;53.570;9.984;2023-07-24T10:40:38;6.97;;;4.25;;
65189;SDS011;51777;53.570;9.984;2023-07-24T10:43:23;6.85;;;4.00;;
65189;SDS011;51777;53.570;9.984;2023-07-24T10:45:51;6.03;;;3.65;;
65189;SDS011;51777;53.570;9.984;2023-07-24T10:48:19;5.65;;;3.78;;
65189;SDS011;51777;53.570;9.984;2023-07-24T10:50:47;4.47;;;4.00;;
65189;SDS011;51777;53.570;9.984;2023-07-24T10:53:16;4.85;;;3.65;;
65189;SDS011;51777;53.570;9.984;2023-07-24T10:55:43;4.28;;;2.53;;
65189;SDS011;51777;53.570;9.984;2023-07-24T10:58:09;4.05;;;3.70;;
65189;SDS011;51777;53.570;9.984;2023-07-24T11:00:36;4.50;;;3.45;;
65189;SDS011;51777;53.570;9.984;2023-07-24T11:03:01;4.88;;;3.67;;
65189;SDS011;51777;53.570;9.984;2023-07-24T11:05:28;4.40;;;3.78;;
65189;SDS011;51777;53.570;9.984;2023-07-24T11:07:54;4.43;;;3.85;;
65189;SDS011;51777;53.570;9.984;2023-07-24T11:10:20;3.97;;;3.50;;
65189;SDS011;51777;53.570;9.984;2023-07-24T11:12:47;4.45;;;3.65;;
65189;SDS011;51777;53.570;9.984;2023-07-24T11:15:13;5.20;;;3.50;;
65189;SDS011;51777;53.570;9.984;2023-07-24T11:17:40;3.65;;;3.33;;
65189;SDS011;51777;53.570;9.984;2023-07-24T11:22:37;4.82;;;3.53;;
65189;SDS011;51777;53.570;9.984;2023-07-24T11:25:07;3.60;;;2.88;;
65189;SDS011;51777;53.570;9.984;2023-07-24T11:27:37;4.38;;;2.90;;
65189;SDS011;51777;53.570;9.984;2023-07-24T11:32:33;4.53;;;3.20;;
65189;SDS011;51777;53.570;9.984;2023-07-24T11:34:58;3.47;;;3.17;;
65189;SDS011;51777;53.570;9.984;2023-07-24T11:37:25;4.22;;;3.20;;
65189;SDS011;51777;53.570;9.984;2023-07-24T11:39:58;2.50;;;2.22;;
65189;SDS011;51777;53.570;9.984;2023-07-24T11:42:27;4.57;;;3.42;;
65189;SDS011;51777;53.570;9.984;2023-07-24T11:44:53;5.15;;;3.35;;
65189;SDS011;51777;53.570;9.984;2023-07-24T11:47:19;4.57;;;2.88;;
65189;SDS011;51777;53.570;9.984;2023-07-24T11:49:45;4.13;;;3.00;;
65189;SDS011;51777;53.570;9.984;2023-07-24T11:52:21;2.90;;;2.38;;
65189;SDS011;51777;53.570;9.984;2023-07-24T11:54:46;2.28;;;2.08;;
65189;SDS011;51777;53.570;9.984;2023-07-24T11:57:25;3.55;;;3.00;;
65189;SDS011;51777;53.570;9.984;2023-07-24T11:59:51;3.80;;;3.15;;
65189;SDS011;51777;53.570;9.984;2023-07-24T12:02:18;4.13;;;3.13;;
65189;SDS011;51777;53.570;9.984;2023-07-24T12:04:44;5.68;;;3.00;;
65189;SDS011;51777;53.570;9.984;2023-07-24T12:07:10;7.13;;;3.22;;
65189;SDS011;51777;53.570;9.984;2023-07-24T12:09:35;4.72;;;3.08;;
65189;SDS011;51777;53.570;9.984;2023-07-24T12:12:00;3.42;;;2.90;;
65189;SDS011;51777;53.570;9.984;2023-07-24T12:14:28;4.95;;;2.53;;
65189;SDS011;51777;53.570;9.984;2023-07-24T12:17:00;2.97;;;2.35;;
65189;SDS011;51777;53.570;9.984;2023-07-24T12:19:27;4.28;;;2.67;;
65189;SDS011;51777;53.570;9.984;2023-07-24T12:21:52;7.32;;;2.80;;
65189;SDS011;51777;53.570;9.984;2023-07-24T12:24:17;3.50;;;2.80;;
65189;SDS011;51777;53.570;9.984;2023-07-24T12:26:43;3.97;;;2.50;;
65189;SDS011;51777;53.570;9.984;2023-07-24T12:29:08;2.50;;;2.30;;
65189;SDS011;51777;53.570;9.984;2023-07-24T12:31:34;3.35;;;2.75;;
65189;SDS011;51777;53.570;9.984;2023-07-24T12:33:59;2.65;;;2.45;;
65189;SDS011;51777;53.570;9.984;2023-07-24T12:36:25;3.78;;;2.63;;
65189;SDS011;51777;53.570;9.984;2023-07-24T12:38:50;3.30;;;2.28;;
65189;SDS011;51777;53.570;9.984;2023-07-24T12:41:15;3.42;;;2.25;;
65189;SDS011;51777;53.570;9.984;2023-07-24T12:43:41;4.30;;;2.47;;
65189;SDS011;51777;53.570;9.984;2023-07-24T12:46:06;2.85;;;2.50;;
65189;SDS011;51777;53.570;9.984;2023-07-24T12:48:31;2.55;;;2.03;;
65189;SDS011;51777;53.570;9.984;2023-07-24T12:50:57;3.72;;;2.13;;
65189;SDS011;51777;53.570;9.984;2023-07-24T12:53:24;2.33;;;2.10;;
65189;SDS011;51777;53.570;9.984;2023-07-24T12:55:50;4.63;;;2.13;;
65189;SDS011;51777;53.570;9.984;2023-07-24T12:58:15;2.75;;;2.30;;
65189;SDS011;51777;53.570;9.984;2023-07-24T13:00:41;3.75;;;2.20;;
65189;SDS011;51777;53.570;9.984;2023-07-24T13:03:06;3.00;;;2.25;;
65189;SDS011;51777;53.570;9.984;2023-07-24T13:05:32;3.28;;;2.30;;
65189;SDS011;51777;53.570;9.984;2023-07-24T13:07:57;2.55;;;2.20;;
65189;SDS011;51777;53.570;9.984;2023-07-24T13:10:23;4.50;;;2.17;;
65189;SDS011;51777;53.570;9.984;2023-07-24T13:12:48;2.63;;;2.22;;
65189;SDS011;51777;53.570;9.984;2023-07-24T13:15:14;2.15;;;1.95;;
65189;SDS011;51777;53.570;9.984;2023-07-24T13:17:39;2.00;;;1.80;;
65189;SDS011;51777;53.570;9.984;2023-07-24T13:20:05;3.40;;;1.90;;
65189;SDS011;51777;53.570;9.984;2023-07-24T13:22:31;2.17;;;1.80;;
65189;SDS011;51777;53.570;9.984;2023-07-24T13:24:56;3.63;;;2.10;;
65189;SDS011;51777;53.570;9.984;2023-07-24T13:27:22;2.40;;;1.90;;
65189;SDS011;51777;53.570;9.984;2023-07-24T13:29:47;3.55;;;2.10;;
65189;SDS011;51777;53.570;9.984;2023-07-24T13:32:13;2.42;;;2.20;;
65189;SDS011;51777;53.570;9.984;2023-07-24T13:34:38;2.92;;;2.00;;
65189;SDS011;51777;53.570;9.984;2023-07-24T13:37:03;2.17;;;1.90;;
65189;SDS011;51777;53.570;9.984;2023-07-24T13:39:29;4.82;;;1.80;;
65189;SDS011;51777;53.570;9.984;2023-07-24T13:41:56;1.90;;;1.80;;
65189;SDS011;51777;53.570;9.984;2023-07-24T13:44:22;2.35;;;1.90;;
65189;SDS011;51777;53.570;9.984;2023-07-24T13:46:47;5.82;;;2.25;;
65189;SDS011;51777;53.570;9.984;2023-07-24T13:49:13;2.42;;;2.20;;
65189;SDS011;51777;53.570;9.984;2023-07-24T13:51:38;2.03;;;1.88;;
65189;SDS011;51777;53.570;9.984;2023-07-24T13:54:04;2.38;;;2.17;;
65189;SDS011;51777;53.570;9.984;2023-07-24T13:56:29;2.20;;;2.00;;
65189;SDS011;51777;53.570;9.984;2023-07-24T13:58:58;3.55;;;2.13;;
65189;SDS011;51777;53.570;9.984;2023-07-24T14:01:23;2.30;;;2.10;;
65189;SDS011;51777;53.570;9.984;2023-07-24T14:03:49;2.42;;;2.22;;
65189;SDS011;51777;53.570;9.984;2023-07-24T14:06:14;2.15;;;2.05;;
65189;SDS011;51777;53.570;9.984;2023-07-24T14:08:39;3.40;;;2.42;;
65189;SDS011;51777;53.570;9.984;2023-07-24T14:11:05;4.05;;;2.22;;
65189;SDS011;51777;53.570;9.984;2023-07-24T14:13:30;3.80;;;2.35;;
65189;SDS011;51777;53.570;9.984;2023-07-24T14:15:56;2.58;;;2.20;;
65189;SDS011;51777;53.570;9.984;2023-07-24T14:18:21;3.75;;;2.20;;
65189;SDS011;51777;53.570;9.984;2023-07-24T14:20:46;6.60;;;2.50;;
65189;SDS011;51777;53.570;9.984;2023-07-24T14:23:12;3.63;;;2.70;;
65189;SDS011;51777;53.570;9.984;2023-07-24T14:25:38;3.97;;;2.40;;
65189;SDS011;51777;53.570;9.984;2023-07-24T14:28:03;2.53;;;2.17;;
65189;SDS011;51777;53.570;9.984;2023-07-24T14:30:29;4.10;;;2.75;;
65189;SDS011;51777;53.570;9.984;2023-07-24T14:32:54;4.63;;;2.70;;
65189;SDS011;51777;53.570;9.984;2023-07-24T14:35:20;2.60;;;2.40;;
65189;SDS011;51777;53.570;9.984;2023-07-24T14:37:45;5.95;;;2.85;;
65189;SDS011;51777;53.570;9.984;2023-07-24T14:40:11;2.80;;;2.60;;
65189;SDS011;51777;53.570;9.984;2023-07-24T14:42:37;3.10;;;2.85;;
65189;SDS011;51777;53.570;9.984;2023-07-24T14:45:02;3.15;;;2.80;;
65189;SDS011;51777;53.570;9.984;2023-07-24T14:47:28;6.93;;;2.80;;
65189;SDS011;51777;53.570;9.984;2023-07-24T14:49:54;3.17;;;2.88;;
65189;SDS011;51777;53.570;9.984;2023-07-24T14:52:22;6.70;;;2.80;;
65189;SDS011;51777;53.570;9.984;2023-07-24T14:54:47;5.13;;;2.70;;
65189;SDS011;51777;53.570;9.984;2023-07-24T14:57:13;3.95;;;3.03;;
65189;SDS011;51777;53.570;9.984;2023-07-24T14:59:38;4.45;;;3.20;;
65189;SDS011;51777;53.570;9.984;2023-07-24T15:02:03;3.50;;;3.20;;
65189;SDS011;51777;53.570;9.984;2023-07-24T15:04:29;9.88;;;3.60;;
65189;SDS011;51777;53.570;9.984;2023-07-24T15:06:54;6.50;;;3.08;;
65189;SDS011;51777;53.570;9.984;2023-07-24T15:09:20;4.50;;;3.03;;